createdAt,value
2023-03-02T00:04:28.574Z,101078.50
2023-03-02T00:09:29.733Z,101080.53
2023-03-02T00:14:31.010Z,101073.94
2023-03-02T00:19:32.280Z,101080.91
2023-03-02T00:24:33.471Z,101069.44
2023-03-02T00:29:34.825Z,101069.44
2023-03-02T00:34:35.996Z,101065.44
2023-03-02T00:39:37.174Z,101070.81
2023-03-02T00:44:38.297Z,101067.25
2023-03-02T00:49:39.493Z,101066.84
2023-03-02T00:54:40.628Z,101065.66
2023-03-02T00:59:41.804Z,101052.94
2023-03-02T01:04:43.082Z,101058.91
2023-03-02T01:09:44.340Z,101055.31
2023-03-02T01:14:45.582Z,101047.78
2023-03-02T01:19:46.886Z,101044.00
2023-03-02T01:24:48.099Z,101038.28
2023-03-02T01:29:50.683Z,101024.59
2023-03-02T01:34:52.075Z,101017.25
2023-03-02T01:39:53.259Z,101007.06
2023-03-02T01:44:57.104Z,101004.22
2023-03-02T01:49:58.312Z,101006.75
2023-03-02T01:54:59.558Z,101001.00
2023-03-02T02:00:00.786Z,101001.69
2023-03-02T02:05:02.041Z,101003.72
2023-03-02T02:10:03.198Z,100995.97
2023-03-02T02:15:04.347Z,100989.06
2023-03-02T02:20:09.099Z,100992.63
2023-03-02T02:25:10.279Z,100988.09
2023-03-02T02:30:11.433Z,100983.72
2023-03-02T02:35:12.632Z,100983.31
2023-03-02T02:40:13.884Z,100984.88
2023-03-02T02:45:15.067Z,100989.44
2023-03-02T02:50:16.830Z,100984.69
2023-03-02T02:55:18.041Z,100989.66
2023-03-02T03:00:19.183Z,100985.91
2023-03-02T03:05:20.401Z,100977.97
2023-03-02T03:10:21.547Z,100977.75
2023-03-02T03:15:22.773Z,100974.97
2023-03-02T03:20:23.945Z,100978.94
2023-03-02T03:25:25.160Z,100975.38
2023-03-02T03:30:26.416Z,100983.88
2023-03-02T03:35:27.642Z,100973.34
2023-03-02T03:40:29.008Z,100970.38
2023-03-02T03:45:30.764Z,100970.97
2023-03-02T03:50:31.961Z,100969.19
2023-03-02T03:55:33.193Z,100964.81
2023-03-02T04:00:34.376Z,100962.88
2023-03-02T04:05:35.606Z,100962.28
2023-03-02T04:10:36.759Z,100961.06
2023-03-02T04:15:38.098Z,100969.22
2023-03-02T04:20:39.429Z,100965.00
2023-03-02T04:25:40.653Z,100966.78
2023-03-02T04:30:41.898Z,100959.63
2023-03-02T04:35:43.156Z,100965.97
2023-03-02T04:40:45.986Z,100973.69
2023-03-02T04:45:47.194Z,100975.19
2023-03-02T04:50:48.329Z,100968.94
2023-03-02T04:55:49.816Z,100959.66
2023-03-02T05:00:51.049Z,100961.88
2023-03-02T05:05:52.220Z,100966.81
2023-03-02T05:10:53.397Z,100955.91
2023-03-02T05:15:57.413Z,100965.25
2023-03-02T05:20:58.696Z,100964.66
2023-03-02T05:25:59.900Z,100966.41
2023-03-02T05:31:01.160Z,100966.63
2023-03-02T05:36:02.381Z,100962.88
2023-03-02T05:41:03.526Z,100955.13
2023-03-02T05:46:04.677Z,100958.47
2023-03-02T05:51:05.849Z,100956.06
2023-03-02T05:56:07.077Z,100954.06
2023-03-02T06:01:08.268Z,100957.84
2023-03-02T06:06:13.660Z,100970.81
2023-03-02T06:11:14.854Z,100970.41
2023-03-02T06:16:16.070Z,100975.56
2023-03-02T06:21:17.279Z,100977.97
2023-03-02T06:26:18.467Z,100974.19
2023-03-02T06:31:19.717Z,100973.00
2023-03-02T06:36:21.028Z,100981.91
2023-03-02T06:41:22.714Z,100991.81
2023-03-02T06:46:24.005Z,100990.81
2023-03-02T06:51:25.279Z,100991.81
2023-03-02T06:56:26.448Z,101001.94
2023-03-02T07:01:28.623Z,100996.78
2023-03-02T07:06:29.821Z,100998.59
2023-03-02T07:11:31.283Z,100992.22
2023-03-02T07:16:32.718Z,100995.81
2023-03-02T07:21:34.163Z,100992.63
2023-03-02T07:26:35.529Z,100987.25
2023-03-02T07:31:36.737Z,101006.88
2023-03-02T07:36:37.962Z,100997.72
2023-03-02T07:41:39.161Z,100995.78
2023-03-02T07:46:40.397Z,100995.72
2023-03-02T07:51:41.650Z,100998.38
2023-03-02T07:56:42.895Z,100998.44
2023-03-02T08:01:44.111Z,100997.56
2023-03-02T08:06:45.297Z,101005.97
2023-03-02T08:11:47.814Z,101000.13
2023-03-02T08:16:49.070Z,101000.44
2023-03-02T08:21:50.284Z,101003.84
2023-03-02T08:26:51.533Z,100990.38
2023-03-02T08:31:52.807Z,100998.50
2023-03-02T08:36:54.213Z,100993.97
2023-03-02T08:41:55.360Z,100993.69
2023-03-02T08:46:56.535Z,100995.66
2023-03-02T08:51:57.926Z,100987.06
2023-03-02T08:56:59.120Z,100979.34
2023-03-02T09:02:00.274Z,100976.78
2023-03-02T09:07:01.480Z,100973.31
2023-03-02T09:12:02.746Z,100976.78
2023-03-02T09:17:05.492Z,100970.72
2023-03-02T09:22:06.635Z,100971.44
2023-03-02T09:27:07.833Z,100971.81
2023-03-02T09:32:09.527Z,100965.97
2023-03-02T09:37:10.710Z,100961.66
2023-03-02T09:42:11.890Z,100952.50
2023-03-02T09:47:13.065Z,100958.78
2023-03-02T09:52:15.293Z,100948.00
2023-03-02T09:57:16.513Z,100945.47
2023-03-02T10:02:17.836Z,100943.56
2023-03-02T10:07:19.006Z,100938.16
2023-03-02T10:12:20.239Z,100932.28
2023-03-02T10:17:21.378Z,100926.38
2023-03-02T10:22:22.534Z,100915.94
2023-03-02T10:27:25.960Z,100922.25
2023-03-02T10:32:27.213Z,100926.38
2023-03-02T10:37:28.409Z,100909.91
2023-03-02T10:42:29.684Z,100915.72
2023-03-02T10:47:30.895Z,100905.88
2023-03-02T10:52:32.128Z,100898.09
2023-03-02T10:57:33.382Z,100896.78
2023-03-02T11:02:34.578Z,100890.63
2023-03-02T11:07:35.998Z,100882.44
2023-03-02T11:12:37.188Z,100879.88
2023-03-02T11:17:38.408Z,100872.91
2023-03-02T11:22:39.628Z,100866.91
2023-03-02T11:27:40.869Z,100871.44
2023-03-02T11:32:42.164Z,100865.34
2023-03-02T11:37:43.358Z,100862.41
2023-03-02T11:42:44.737Z,100850.66
2023-03-02T11:47:49.262Z,100848.94
2023-03-02T11:52:55.345Z,100848.63
2023-03-02T11:57:56.595Z,100845.47
2023-03-02T12:02:57.807Z,100830.31
2023-03-02T12:07:58.962Z,100825.31
2023-03-02T12:13:00.739Z,100815.47
2023-03-02T12:18:01.915Z,100825.78
2023-03-02T12:23:03.103Z,100815.47
2023-03-02T12:28:04.388Z,100809.63
2023-03-02T12:33:05.623Z,100802.78
2023-03-02T12:38:06.961Z,100803.28
2023-03-02T12:43:08.281Z,100788.25
2023-03-02T12:48:09.551Z,100798.31
2023-03-02T12:53:10.819Z,100778.38
2023-03-02T12:58:11.998Z,100769.91
2023-03-02T13:03:13.216Z,100756.78
2023-03-02T13:08:15.188Z,100763.03
2023-03-02T13:13:16.444Z,100756.63
2023-03-02T13:18:17.678Z,100752.16
2023-03-02T13:23:18.837Z,100743.84
2023-03-02T13:28:19.998Z,100750.41
2023-03-02T13:33:21.173Z,100739.44
2023-03-02T13:38:22.353Z,100745.25
2023-03-02T13:43:23.581Z,100734.31
2023-03-02T13:48:24.863Z,100733.47
2023-03-02T13:53:26.317Z,100732.44
2023-03-02T13:58:28.284Z,100732.00
2023-03-02T14:03:29.474Z,100725.28
2023-03-02T14:08:30.713Z,100726.88
2023-03-02T14:13:31.976Z,100717.72
2023-03-02T14:18:33.485Z,100708.84
2023-03-02T14:23:34.666Z,100711.75
2023-03-02T14:28:36.005Z,100703.84
2023-03-02T14:33:37.190Z,100709.56
2023-03-02T14:38:38.380Z,100704.66
2023-03-02T14:43:39.632Z,100700.53
2023-03-02T14:48:40.843Z,100694.81
2023-03-02T14:53:42.044Z,100691.66
2023-03-02T14:58:43.186Z,100692.44
2023-03-02T15:03:44.426Z,100692.72
2023-03-02T15:08:45.656Z,100694.47
2023-03-02T15:13:46.927Z,100680.56
2023-03-02T15:18:48.131Z,100698.16
2023-03-02T15:23:49.616Z,100695.81
2023-03-02T15:28:51.378Z,100697.41
2023-03-02T15:33:54.841Z,100678.06
2023-03-02T15:38:56.033Z,100697.56
2023-03-02T15:43:57.316Z,100697.06
2023-03-02T15:48:58.585Z,100689.84
2023-03-02T15:53:59.830Z,100689.69
2023-03-02T15:59:01.117Z,100692.13
2023-03-02T16:04:02.339Z,100696.41
2023-03-02T16:09:03.559Z,100702.25
2023-03-02T16:14:04.841Z,100707.09
2023-03-02T16:19:06.088Z,100697.44
2023-03-02T16:24:07.350Z,100700.25
2023-03-02T16:29:08.636Z,100710.59
2023-03-02T16:34:09.988Z,100708.56
2023-03-02T16:39:11.307Z,100715.44
2023-03-02T16:44:14.551Z,100719.72
2023-03-02T16:49:15.849Z,100725.59
2023-03-02T16:54:17.053Z,100728.25
2023-03-02T16:59:18.446Z,100731.97
2023-03-02T17:04:21.110Z,100735.66
2023-03-02T17:09:22.302Z,100745.66
2023-03-02T17:14:23.502Z,100751.41
2023-03-02T17:19:26.692Z,100751.41
2023-03-02T17:24:28.057Z,100762.38
2023-03-02T17:29:29.262Z,100771.28
2023-03-02T17:34:31.101Z,100777.03
2023-03-02T17:39:32.313Z,100782.25
2023-03-02T17:44:34.531Z,100786.41
2023-03-02T17:49:35.784Z,100789.25
2023-03-02T17:54:37.011Z,100791.59
2023-03-02T17:59:38.163Z,100795.75
2023-03-02T18:04:39.361Z,100804.63
2023-03-02T18:09:40.651Z,100813.19
2023-03-02T18:14:41.834Z,100814.41
2023-03-02T18:19:43.088Z,100826.44
2023-03-02T18:24:44.301Z,100829.78
2023-03-02T18:29:45.520Z,100830.00
2023-03-02T18:34:46.698Z,100834.09
2023-03-02T18:39:48.279Z,100795.66
2023-03-02T18:44:49.538Z,100832.81
2023-03-02T18:49:50.751Z,100836.41
2023-03-02T18:54:57.230Z,100846.28
2023-03-02T18:59:58.408Z,100845.72
2023-03-02T19:04:59.644Z,100854.22
2023-03-02T19:10:00.848Z,100862.72
2023-03-02T19:15:02.145Z,100860.50
2023-03-02T19:20:03.326Z,100872.63
2023-03-02T19:25:04.502Z,100872.44
2023-03-02T19:30:05.811Z,100882.50
2023-03-02T19:35:07.007Z,100884.16
2023-03-02T19:40:08.158Z,100891.50
2023-03-02T19:45:12.439Z,100892.97
2023-03-02T19:50:13.688Z,100895.44
2023-03-02T19:55:14.975Z,100895.28
2023-03-02T20:00:16.190Z,100897.81
2023-03-02T20:05:17.377Z,100897.91
2023-03-02T20:10:18.567Z,100889.94
2023-03-02T20:15:19.796Z,100910.47
2023-03-02T20:20:21.013Z,100910.28
2023-03-02T20:25:22.222Z,100919.56
2023-03-02T20:30:23.502Z,100920.50
2023-03-02T20:35:24.655Z,100926.03
2023-03-02T20:40:26.018Z,100930.09
2023-03-02T20:45:27.408Z,100935.44
2023-03-02T20:50:28.928Z,100930.84
2023-03-02T20:55:30.241Z,100937.47
2023-03-02T21:00:31.667Z,100941.19
2023-03-02T21:05:32.800Z,100942.94
2023-03-02T21:10:34.131Z,100935.03
2023-03-02T21:15:35.465Z,100939.94
2023-03-02T21:20:36.829Z,100947.06
2023-03-02T21:25:39.475Z,100929.25
2023-03-02T21:30:41.733Z,100926.06
2023-03-02T21:35:42.865Z,100931.94
2023-03-02T21:40:45.896Z,100932.50
2023-03-02T21:45:47.173Z,100935.56
2023-03-02T21:50:48.390Z,100936.75
2023-03-02T21:55:53.507Z,100936.03
2023-03-02T22:00:54.638Z,100935.16
2023-03-02T22:05:55.930Z,100928.03
2023-03-02T22:10:57.144Z,100918.78
2023-03-02T22:15:58.409Z,100917.50
2023-03-02T22:20:59.673Z,100921.53
2023-03-02T22:26:00.917Z,100932.00
2023-03-02T22:31:02.111Z,100928.03
2023-03-02T22:36:03.417Z,100940.63
2023-03-02T22:41:04.792Z,100940.50
2023-03-02T22:46:05.953Z,100941.22
2023-03-02T22:51:07.089Z,100941.53
2023-03-02T22:56:08.277Z,100936.34
2023-03-02T23:01:09.563Z,100943.97
2023-03-02T23:06:10.715Z,100954.94
2023-03-02T23:11:11.923Z,100949.22
2023-03-02T23:16:13.156Z,100950.50
2023-03-02T23:21:14.340Z,100955.59
2023-03-02T23:26:15.678Z,100959.72
2023-03-02T23:31:18.305Z,100963.22
2023-03-02T23:36:20.941Z,100961.56
2023-03-02T23:41:22.176Z,100960.59
2023-03-02T23:46:23.371Z,100969.03
2023-03-02T23:51:25.427Z,100966.00
2023-03-02T23:56:26.583Z,100969.03
